Terminal Aerodrome Forecast
Issued by NWS

Home | Current Version | Previous Version | Text Only | Print | Product List | Glossary On
Versions: 1 2 3 4 5 6 7 8 9 10 11 12 13 14 15
000
FTUS44 KLIX 281100
TAFMCB
TAF
KMCB 281130Z 2812/2912 28006KT P6SM FEW045
      TEMPO 2816/2820 VRB15G30KT 2SM -TSRA BKN035CB
     FM282300 28007KT P6SM BKN040
     FM290600 VRB02KT P6SM SKC
      TEMPO 2910/2912 VRB03KT 1SM BR SCT005=

USA.gov is the U.S. government's official web portal to all federal, state and local government web resources and services.